Terminal Aerodrome Forecast
Issued by NWS Pocatello, ID

Home | Current Version | Previous Version | Text Only | Print | Product List | Glossary On
Versions: 1 2 3 4 5 6 7 8 9 10 11 12 13 14
000
FTUS45 KPIH 242321
TAFPIH
TAF
KPIH 242321Z 2500/2524 22008KT P6SM BKN150
     FM250200 VRB06KT P6SM SCT120 BKN200
     FM251600 27007KT P6SM VCTS FEW080 SCT110CB BKN150=

USA.gov is the U.S. government's official web portal to all federal, state and local government web resources and services.